createdAt,value
2022-10-20T00:05:40.481Z,98304.13
2022-10-20T00:15:57.517Z,98298.28
2022-10-20T00:26:15.506Z,98289.22
2022-10-20T00:36:29.511Z,98281.53
2022-10-20T00:46:48.518Z,98272.03
2022-10-20T01:07:14.512Z,98248.72
2022-10-20T01:17:59.551Z,98236.06
2022-10-20T01:28:20.565Z,98236.56
2022-10-20T01:38:38.543Z,98232.16
2022-10-20T01:48:57.560Z,98219.59
2022-10-20T01:59:28.578Z,98220.94
2022-10-20T11:43:03.685Z,98228.56
2022-10-20T11:53:35.994Z,98228.56
2022-10-20T12:04:06.967Z,99630.56
2022-10-20T12:14:23.000Z,99619.84
2022-10-20T12:24:45.029Z,99613.97
2022-10-20T12:35:08.993Z,99607.88
2022-10-20T12:45:27.023Z,99590.00
2022-10-20T12:55:44.008Z,99577.09
2022-10-20T13:05:57.036Z,99577.09
2022-10-20T13:16:11.029Z,99386.13
2022-10-20T13:26:38.090Z,99259.19
2022-10-20T13:37:22.573Z,99258.00
2022-10-20T13:48:10.059Z,99206.03
2022-10-20T13:58:28.058Z,99186.16
2022-10-20T14:19:18.080Z,99082.06
2022-10-20T14:29:32.098Z,99062.63
2022-10-20T14:39:47.079Z,99032.37
2022-10-20T14:50:01.099Z,99024.25
2022-10-20T15:00:33.122Z,98952.25
2022-10-20T15:10:46.096Z,98885.78
2022-10-20T15:21:01.153Z,98828.91
2022-10-20T15:31:28.172Z,98700.22
2022-10-20T15:41:43.145Z,98464.78
2022-10-20T15:52:02.130Z,98342.91
2022-10-20T16:02:19.237Z,98220.62
2022-10-20T16:12:33.185Z,98073.37
2022-10-20T16:22:46.183Z,97967.88
2022-10-20T16:32:59.181Z,97879.22
2022-10-20T16:43:12.190Z,97764.88
2022-10-20T16:53:38.231Z,97653.84
2022-10-20T17:03:56.205Z,97478.87
2022-10-20T17:14:09.227Z,97411.56
2022-10-20T17:24:22.326Z,97539.22
2022-10-20T17:34:35.329Z,97477.59
2022-10-20T17:44:48.293Z,97501.31
2022-10-20T17:55:07.346Z,97506.22
2022-10-20T18:05:20.307Z,97503.56
2022-10-20T18:15:33.280Z,97514.38
2022-10-20T18:25:46.259Z,97536.81
2022-10-20T18:35:59.281Z,97569.16
2022-10-20T18:46:13.347Z,97594.34
2022-10-20T18:56:28.298Z,97736.31
2022-10-20T19:06:45.273Z,97896.97
2022-10-20T19:16:58.251Z,98028.22
2022-10-20T19:27:27.519Z,98038.41
2022-10-20T19:37:41.334Z,98062.38
2022-10-20T19:47:54.317Z,98087.50
2022-10-20T19:58:07.327Z,98140.44
2022-10-20T20:08:20.322Z,98139.00
2022-10-20T20:18:33.321Z,98116.66
2022-10-20T20:28:46.351Z,98127.28
2022-10-20T20:38:59.361Z,98134.28
2022-10-20T20:49:12.355Z,98125.97
2022-10-20T20:59:25.389Z,98117.00
2022-10-20T21:09:38.339Z,98113.00
2022-10-20T21:19:51.371Z,98100.34
2022-10-20T21:30:04.350Z,98098.28
2022-10-20T21:40:17.398Z,98118.37
2022-10-20T21:50:37.386Z,98143.97
2022-10-20T22:00:50.474Z,98145.56
2022-10-20T22:11:03.399Z,98142.13
2022-10-20T22:21:18.399Z,98128.75
2022-10-20T22:31:32.412Z,98126.44
2022-10-20T22:41:44.434Z,98108.72
2022-10-20T22:51:57.413Z,98092.22
2022-10-20T23:02:10.438Z,98077.75
2022-10-20T23:12:23.448Z,98043.59
2022-10-20T23:22:36.447Z,98041.63
2022-10-20T23:32:49.447Z,98015.91
2022-10-20T23:43:02.470Z,97995.50
2022-10-20T23:53:15.467Z,97978.69
